Time;durP1;ratioP1;P1;durP2;ratioP2;P2;SDS_P1;SDS_P2;PMS_P1;PMS_P2;Temp;Humidity;BMP_temperature;BMP_pressure;BME280_temperature;BME280_humidity;BME280_pressure;Samples;Min_cycle;Max_cycle;Signal;HPM_P1;HPM_P2
2021/04/27 00:00:41;;;;;;;6.35;2.00;;;7.30;25.90;;;;;;5044311;28;20038;-78
2021/04/27 00:03:06;;;;;;;11.57;2.65;;;7.30;25.40;;;;;;5029395;28;20030;-79
2021/04/27 00:05:32;;;;;;;5.50;2.03;;;7.30;25.20;;;;;;5033422;28;20393;-78
2021/04/27 00:07:58;;;;;;;5.70;2.10;;;7.20;25.00;;;;;;5025999;28;20041;-77
2021/04/27 00:10:24;;;;;;;3.65;1.88;;;7.20;25.60;;;;;;5031729;28;20033;-78
2021/04/27 00:12:50;;;;;;;3.03;1.80;;;7.20;25.70;;;;;;5028105;28;20119;-77
2021/04/27 00:15:25;;;;;;;3.17;1.80;;;7.20;25.70;;;;;;5025283;28;20543;-77
2021/04/27 00:17:51;;;;;;;7.72;2.03;;;7.20;26.30;;;;;;5030593;28;20040;-80
2021/04/27 00:20:21;;;;;;;10.48;2.00;;;7.10;25.60;;;;;;5026041;28;20061;-77
2021/04/27 00:22:47;;;;;;;4.50;1.83;;;7.10;26.30;;;;;;5027013;28;20363;-76
2021/04/27 00:25:13;;;;;;;12.80;2.03;;;7.10;25.80;;;;;;5028795;28;20034;-79
2021/04/27 00:27:39;;;;;;;8.20;1.90;;;7.00;25.80;;;;;;5025150;28;20798;-78
2021/04/27 00:30:07;;;;;;;3.50;1.60;;;7.00;25.60;;;;;;5025453;28;20042;-77
2021/04/27 00:32:33;;;;;;;4.95;2.38;;;7.00;26.50;;;;;;5032852;28;20034;-77
2021/04/27 00:34:58;;;;;;;6.88;1.92;;;7.00;26.50;;;;;;5024828;28;20041;-76
2021/04/27 00:37:24;;;;;;;4.65;1.95;;;6.90;27.30;;;;;;5023180;28;20045;-77
2021/04/27 00:39:49;;;;;;;5.85;2.15;;;7.00;26.80;;;;;;5026450;28;20033;-77
2021/04/27 00:42:15;;;;;;;7.05;2.13;;;7.00;26.60;;;;;;5022988;28;20042;-77
2021/04/27 00:44:41;;;;;;;4.95;1.80;;;6.90;27.30;;;;;;5025062;28;20515;-77
2021/04/27 00:47:06;;;;;;;5.03;2.55;;;6.90;27.10;;;;;;5023222;28;20060;-76
2021/04/27 00:49:32;;;;;;;7.72;2.50;;;6.80;27.70;;;;;;5026515;28;20045;-77
2021/04/27 00:51:58;;;;;;;8.02;2.00;;;6.90;26.70;;;;;;5018308;28;20041;-76
2021/04/27 00:54:23;;;;;;;8.23;2.42;;;6.90;26.90;;;;;;5020920;28;20049;-76
2021/04/27 00:56:49;;;;;;;4.47;2.05;;;6.90;27.00;;;;;;5026813;28;20049;-76
2021/04/27 00:59:15;;;;;;;4.22;2.40;;;7.00;26.90;;;;;;5033986;28;20044;-76
2021/04/27 01:01:41;;;;;;;6.32;2.15;;;7.00;26.70;;;;;;5020983;28;20041;-79
2021/04/27 01:04:07;;;;;;;7.70;2.30;;;7.00;27.90;;;;;;5020498;28;20037;-78
2021/04/27 01:06:32;;;;;;;4.15;1.65;;;7.00;26.80;;;;;;5027594;28;20041;-78
2021/04/27 01:09:06;;;;;;;6.97;2.25;;;6.90;27.60;;;;;;5024743;28;20037;-76
2021/04/27 01:11:55;;;;;;;4.35;2.83;;;6.90;27.90;;;;;;5023957;28;20041;-77
2021/04/27 01:14:38;;;;;;;4.10;2.10;;;7.10;26.50;;;;;;5009271;28;20049;-77
2021/04/27 01:17:16;;;;;;;7.95;2.40;;;7.10;26.70;;;;;;5020743;28;20034;-78
2021/04/27 01:19:47;;;;;;;4.88;2.20;;;7.10;27.10;;;;;;5018606;28;20506;-77
2021/04/27 01:22:20;;;;;;;11.38;1.95;;;7.10;27.30;;;;;;5024929;28;20037;-77
2021/04/27 01:24:53;;;;;;;10.10;1.90;;;7.00;28.10;;;;;;5042423;28;20034;-77
2021/04/27 01:27:19;;;;;;;12.23;2.22;;;6.90;27.60;;;;;;5025595;28;20060;-78
2021/04/27 01:29:45;;;;;;;3.63;2.13;;;6.90;27.70;;;;;;5040344;28;20789;-80
2021/04/27 01:32:12;;;;;;;4.45;2.05;;;6.80;27.90;;;;;;5035693;28;20057;-77
2021/04/27 01:34:42;;;;;;;3.80;1.98;;;6.70;27.70;;;;;;5029162;28;20037;-78
2021/04/27 01:37:09;;;;;;;7.80;1.98;;;6.60;28.50;;;;;;5026454;28;20041;-77
2021/04/27 01:39:37;;;;;;;4.28;2.50;;;6.60;29.60;;;;;;5028822;28;20040;-77
2021/04/27 01:42:05;;;;;;;5.32;2.58;;;6.50;29.10;;;;;;5025964;28;20100;-78
2021/04/27 01:44:32;;;;;;;8.02;2.55;;;6.40;29.20;;;;;;5029338;28;20120;-77
2021/04/27 01:46:58;;;;;;;4.97;2.20;;;6.40;29.40;;;;;;5022866;28;20037;-77
2021/04/27 01:49:25;;;;;;;6.38;2.17;;;6.40;29.50;;;;;;5023996;28;20037;-77
2021/04/27 01:51:52;;;;;;;6.35;3.63;;;6.30;29.80;;;;;;5015246;28;20045;-77
2021/04/27 01:54:21;;;;;;;4.03;1.73;;;6.30;30.20;;;;;;5024721;28;20093;-77
2021/04/27 01:56:47;;;;;;;7.43;2.28;;;6.20;30.60;;;;;;5019719;28;20092;-77
2021/04/27 01:59:12;;;;;;;6.53;2.25;;;6.20;30.90;;;;;;5036318;28;20041;-76
2021/04/27 02:01:38;;;;;;;10.80;2.03;;;6.20;31.30;;;;;;5016672;28;20052;-77
2021/04/27 02:04:04;;;;;;;3.20;1.92;;;6.20;30.80;;;;;;5017996;28;20030;-76
2021/04/27 02:06:30;;;;;;;8.43;2.33;;;6.10;31.20;;;;;;5018689;28;20045;-77
2021/04/27 02:09:07;;;;;;;4.82;2.40;;;6.10;31.60;;;;;;5022828;28;20048;-76
2021/04/27 02:11:35;;;;;;;8.27;2.60;;;6.00;31.80;;;;;;5020004;28;20071;-77
2021/04/27 02:14:02;;;;;;;15.82;2.78;;;6.00;31.80;;;;;;5017418;28;20045;-77
2021/04/27 02:16:32;;;;;;;4.05;2.05;;;6.10;31.10;;;;;;5020196;28;20049;-77
2021/04/27 02:18:59;;;;;;;5.53;2.13;;;6.00;31.70;;;;;;5018022;28;20030;-77
2021/04/27 02:21:25;;;;;;;8.82;2.70;;;6.00;32.70;;;;;;5037038;28;20052;-77
2021/04/27 02:23:52;;;;;;;10.90;2.22;;;6.00;32.10;;;;;;5018910;28;20061;-77
2021/04/27 02:26:18;;;;;;;7.30;2.45;;;5.90;32.00;;;;;;5019268;28;20065;-76
2021/04/27 02:28:45;;;;;;;5.97;2.38;;;5.90;33.50;;;;;;5016130;28;20091;-77
2021/04/27 02:31:11;;;;;;;6.53;2.20;;;5.90;33.20;;;;;;5017960;28;20046;-76
2021/04/27 02:33:42;;;;;;;6.03;2.60;;;5.90;33.20;;;;;;5020653;28;20045;-75
2021/04/27 02:36:08;;;;;;;3.58;1.92;;;5.90;33.10;;;;;;5018119;28;20045;-75
2021/04/27 02:38:35;;;;;;;8.20;2.33;;;5.80;32.10;;;;;;5019197;28;20045;-77
2021/04/27 02:41:02;;;;;;;4.68;2.30;;;5.80;32.30;;;;;;5021593;28;20045;-77
2021/04/27 02:43:27;;;;;;;8.50;3.00;;;5.80;32.80;;;;;;5016829;28;20653;-76
2021/04/27 02:45:53;;;;;;;7.25;2.25;;;5.80;33.70;;;;;;5034689;28;20144;-77
2021/04/27 02:48:24;;;;;;;6.72;2.97;;;5.80;33.40;;;;;;5017158;28;20048;-77
2021/04/27 02:50:54;;;;;;;8.70;2.20;;;5.70;33.10;;;;;;5023703;28;20044;-77
2021/04/27 02:53:20;;;;;;;11.90;2.55;;;5.70;33.40;;;;;;5020354;28;20026;-76
2021/04/27 02:55:46;;;;;;;6.55;2.35;;;5.70;34.00;;;;;;5028675;28;20043;-77
2021/04/27 02:58:12;;;;;;;5.40;2.72;;;5.70;34.10;;;;;;5024542;28;21208;-76
2021/04/27 03:00:39;;;;;;;6.15;2.88;;;5.70;35.10;;;;;;5025726;28;20049;-77
2021/04/27 03:03:05;;;;;;;7.57;2.50;;;5.70;35.10;;;;;;5023621;28;20079;-76
2021/04/27 03:05:31;;;;;;;4.43;2.17;;;5.60;34.50;;;;;;5029349;28;20095;-78
2021/04/27 03:07:57;;;;;;;5.97;2.38;;;5.60;34.30;;;;;;5027435;28;20412;-77
2021/04/27 03:10:23;;;;;;;8.73;2.60;;;5.60;34.50;;;;;;5029135;28;20048;-79
2021/04/27 03:12:49;;;;;;;6.57;2.53;;;5.60;35.10;;;;;;5030489;28;20042;-78
2021/04/27 03:15:15;;;;;;;8.85;2.63;;;5.60;34.90;;;;;;5024193;28;20045;-78
2021/04/27 03:17:41;;;;;;;6.30;2.88;;;5.60;35.00;;;;;;5026249;28;20045;-78
2021/04/27 03:20:09;;;;;;;5.00;2.05;;;5.60;35.30;;;;;;5028698;28;20053;-76
2021/04/27 03:22:34;;;;;;;8.82;2.55;;;5.50;35.10;;;;;;5023937;28;20396;-77
2021/04/27 03:25:00;;;;;;;9.25;2.65;;;5.50;35.70;;;;;;5020311;28;20033;-76
2021/04/27 03:27:25;;;;;;;11.88;2.20;;;5.50;35.70;;;;;;5022972;28;20030;-80
2021/04/27 03:29:51;;;;;;;6.15;2.42;;;5.50;35.70;;;;;;5019330;28;20045;-77
2021/04/27 03:32:17;;;;;;;9.43;2.75;;;5.50;35.40;;;;;;5021656;28;20038;-77
2021/04/27 03:34:42;;;;;;;5.53;2.88;;;5.60;35.90;;;;;;5024793;28;20042;-78
2021/04/27 03:37:09;;;;;;;5.32;2.63;;;5.50;36.30;;;;;;5030566;28;20064;-77
2021/04/27 03:39:35;;;;;;;4.80;2.45;;;5.50;36.00;;;;;;5032511;28;20073;-78
2021/04/27 03:42:01;;;;;;;7.68;2.80;;;5.60;36.20;;;;;;5029499;28;20078;-78
2021/04/27 03:44:27;;;;;;;9.05;2.67;;;5.60;35.80;;;;;;5032599;28;20068;-78
2021/04/27 03:46:52;;;;;;;4.75;2.22;;;5.60;36.60;;;;;;5045532;28;20029;-78
2021/04/27 03:49:18;;;;;;;4.60;2.30;;;5.60;36.00;;;;;;5025837;28;20566;-77
2021/04/27 03:51:44;;;;;;;9.80;2.80;;;5.60;36.00;;;;;;5025359;28;20049;-77
2021/04/27 03:54:09;;;;;;;7.95;2.42;;;5.60;36.10;;;;;;5026085;28;20038;-77
2021/04/27 03:56:35;;;;;;;7.43;2.80;;;5.60;36.80;;;;;;5034038;28;20034;-77
2021/04/27 03:59:00;;;;;;;7.97;2.95;;;5.60;37.10;;;;;;5036430;28;20038;-79
2021/04/27 04:01:26;;;;;;;12.13;3.05;;;5.50;37.60;;;;;;5025431;28;20042;-77
2021/04/27 04:03:51;;;;;;;8.60;3.30;;;5.40;37.10;;;;;;5025131;28;20721;-77
2021/04/27 04:06:17;;;;;;;5.65;2.92;;;5.50;36.60;;;;;;5025595;28;20037;-76
2021/04/27 04:08:43;;;;;;;19.95;3.55;;;5.40;36.80;;;;;;5017394;28;20065;-75
2021/04/27 04:11:08;;;;;;;7.72;3.10;;;5.40;37.60;;;;;;5020366;28;20048;-76
2021/04/27 04:13:34;;;;;;;8.05;3.05;;;5.40;37.80;;;;;;5020587;28;20105;-76
2021/04/27 04:15:59;;;;;;;5.60;2.50;;;5.40;38.10;;;;;;5019660;28;20104;-76
2021/04/27 04:18:25;;;;;;;5.20;2.55;;;5.30;37.60;;;;;;5034003;28;20033;-76
2021/04/27 04:20:52;;;;;;;9.38;3.50;;;5.30;37.20;;;;;;5018574;28;20033;-77
2021/04/27 04:23:18;;;;;;;4.47;2.30;;;5.30;37.60;;;;;;5020041;28;20093;-76
2021/04/27 04:25:44;;;;;;;9.68;2.70;;;5.40;37.40;;;;;;5021043;28;20064;-77
2021/04/27 04:28:12;;;;;;;9.95;2.40;;;5.40;37.90;;;;;;5019678;28;20026;-77
2021/04/27 04:30:38;;;;;;;7.50;2.90;;;5.30;37.50;;;;;;5018987;28;20072;-77
2021/04/27 04:33:04;;;;;;;5.80;2.75;;;5.40;37.70;;;;;;5019750;28;20386;-77
2021/04/27 04:35:31;;;;;;;11.18;3.17;;;5.40;37.70;;;;;;5019746;28;20101;-78
2021/04/27 04:37:56;;;;;;;8.85;2.78;;;5.40;37.10;;;;;;5020243;28;20124;-77
2021/04/27 04:40:22;;;;;;;8.35;2.80;;;5.40;37.40;;;;;;5025282;28;20052;-78
2021/04/27 04:42:48;;;;;;;5.47;2.45;;;5.50;37.40;;;;;;5028387;28;20041;-77
2021/04/27 04:45:15;;;;;;;10.88;2.47;;;5.50;37.50;;;;;;5030059;28;20046;-78
2021/04/27 04:47:41;;;;;;;8.02;2.47;;;5.50;37.40;;;;;;5027306;28;20115;-77
2021/04/27 04:50:09;;;;;;;4.72;2.35;;;5.50;37.30;;;;;;5022168;28;20168;-77
2021/04/27 04:52:35;;;;;;;6.60;2.58;;;5.50;37.70;;;;;;5025756;28;20045;-77
2021/04/27 04:55:01;;;;;;;6.63;2.78;;;5.60;37.50;;;;;;5024960;28;20044;-79
2021/04/27 04:57:27;;;;;;;7.25;2.90;;;5.60;37.40;;;;;;5030518;28;20738;-78
2021/04/27 04:59:52;;;;;;;14.13;2.97;;;5.60;37.80;;;;;;5025108;28;20050;-77
2021/04/27 05:02:18;;;;;;;6.53;2.60;;;5.70;38.50;;;;;;5024348;28;20041;-78
2021/04/27 05:04:43;;;;;;;5.18;2.60;;;5.60;37.80;;;;;;5021685;28;20759;-78
2021/04/27 05:07:11;;;;;;;10.43;2.53;;;5.70;37.50;;;;;;5024225;28;20045;-80
2021/04/27 05:09:39;;;;;;;8.75;2.65;;;5.70;37.60;;;;;;5018208;28;20034;-77
2021/04/27 05:12:06;;;;;;;7.03;3.00;;;5.80;38.20;;;;;;5028620;28;20129;-80
2021/04/27 05:14:45;;;;;;;13.27;3.10;;;5.80;37.10;;;;;;5016679;28;20069;-81
2021/04/27 05:17:13;;;;;;;11.90;2.80;;;6.00;37.30;;;;;;5020532;28;20038;-79
2021/04/27 05:19:39;;;;;;;10.02;2.67;;;6.00;37.50;;;;;;5016697;28;20033;-77
2021/04/27 05:22:06;;;;;;;7.88;3.17;;;6.10;38.00;;;;;;5027681;28;20714;-79
2021/04/27 05:24:32;;;;;;;7.65;3.08;;;6.10;38.10;;;;;;5024660;28;20056;-80
2021/04/27 05:26:58;;;;;;;12.52;3.00;;;6.20;37.60;;;;;;5029161;28;20038;-78
2021/04/27 05:29:23;;;;;;;10.70;3.33;;;6.20;38.00;;;;;;5024898;28;20092;-80
2021/04/27 05:31:52;;;;;;;13.93;4.35;;;6.20;37.30;;;;;;5031714;28;20037;-78
2021/04/27 05:34:21;;;;;;;13.75;3.65;;;6.30;37.20;;;;;;5023580;28;20045;-77
2021/04/27 05:36:47;;;;;;;12.63;3.88;;;6.30;37.20;;;;;;5028675;28;20072;-78
2021/04/27 05:39:13;;;;;;;14.52;3.63;;;6.40;36.70;;;;;;5042083;28;20116;-78
2021/04/27 05:41:39;;;;;;;6.60;2.95;;;6.40;36.80;;;;;;5034756;28;20091;-77
2021/04/27 05:44:05;;;;;;;7.15;3.38;;;6.50;36.30;;;;;;5030240;28;20141;-78
2021/04/27 05:46:31;;;;;;;8.18;2.97;;;6.60;36.40;;;;;;5034613;28;20053;-79
2021/04/27 05:48:56;;;;;;;3.65;2.70;;;6.70;36.60;;;;;;5027601;28;20034;-78
2021/04/27 05:51:22;;;;;;;8.50;3.47;;;6.90;35.30;;;;;;5029178;28;20160;-78
2021/04/27 05:53:47;;;;;;;7.43;3.15;;;6.90;34.80;;;;;;5025955;28;20045;-78
2021/04/27 05:56:13;;;;;;;9.70;3.17;;;6.90;34.60;;;;;;5030187;28;20053;-78
2021/04/27 05:58:38;;;;;;;8.25;3.30;;;7.00;34.50;;;;;;5028056;28;20116;-78
2021/04/27 06:01:04;;;;;;;8.45;3.53;;;7.30;34.90;;;;;;5041522;28;20037;-79
2021/04/27 06:03:30;;;;;;;8.30;3.20;;;7.30;33.10;;;;;;5028110;28;20045;-78
2021/04/27 06:05:55;;;;;;;15.20;3.75;;;7.40;33.00;;;;;;5021322;28;20133;-80
2021/04/27 06:08:21;;;;;;;6.68;3.15;;;7.50;32.60;;;;;;5029162;28;20041;-79
2021/04/27 06:10:46;;;;;;;6.57;2.95;;;7.60;31.90;;;;;;5030058;28;20045;-78
2021/04/27 06:13:12;;;;;;;6.60;3.05;;;7.60;31.50;;;;;;5031960;28;20479;-80
2021/04/27 06:15:38;;;;;;;8.88;2.90;;;7.80;31.80;;;;;;5027775;28;20045;-80
2021/04/27 06:18:04;;;;;;;12.80;2.92;;;7.90;31.40;;;;;;5022950;28;20385;-80
2021/04/27 06:20:29;;;;;;;10.23;3.08;;;8.00;31.20;;;;;;5031670;28;20063;-78
2021/04/27 06:22:55;;;;;;;11.52;3.03;;;8.10;30.50;;;;;;5025302;28;20045;-77
2021/04/27 06:25:20;;;;;;;12.70;3.28;;;8.10;30.60;;;;;;5026725;28;20045;-80
2021/04/27 06:27:46;;;;;;;8.52;3.45;;;8.20;29.90;;;;;;5024024;28;20053;-80
2021/04/27 06:30:14;;;;;;;7.68;3.28;;;8.30;29.70;;;;;;5022573;28;20050;-78
2021/04/27 06:32:40;;;;;;;10.90;3.78;;;8.30;29.70;;;;;;5030623;28;20045;-81
2021/04/27 06:35:06;;;;;;;11.35;3.80;;;8.30;30.60;;;;;;5034432;28;20034;-81
2021/04/27 06:37:31;;;;;;;9.45;3.42;;;8.40;29.80;;;;;;5036384;28;20056;-81
2021/04/27 06:39:57;;;;;;;11.68;3.45;;;8.40;29.60;;;;;;5037110;28;20080;-78
2021/04/27 06:42:23;;;;;;;12.93;4.13;;;8.50;29.70;;;;;;5039117;28;20056;-78
2021/04/27 06:44:48;;;;;;;8.95;3.42;;;8.60;29.10;;;;;;5033259;28;20037;-79
2021/04/27 06:47:14;;;;;;;9.57;3.88;;;8.80;29.00;;;;;;5032427;28;20038;-78
2021/04/27 06:49:42;;;;;;;9.57;3.58;;;9.30;28.70;;;;;;5035684;28;20033;-78
2021/04/27 06:52:09;;;;;;;6.72;3.30;;;9.60;27.50;;;;;;5056343;28;20044;-79
2021/04/27 06:54:34;;;;;;;9.25;3.45;;;9.70;27.20;;;;;;5032212;28;20061;-78
2021/04/27 06:57:01;;;;;;;13.10;3.38;;;10.10;25.80;;;;;;5042376;28;20049;-79
2021/04/27 06:59:31;;;;;;;7.18;3.80;;;10.20;24.50;;;;;;5043656;28;20068;-78
2021/04/27 07:02:01;;;;;;;8.73;3.50;;;10.10;24.50;;;;;;5040135;28;20188;-78
2021/04/27 07:04:27;;;;;;;10.77;3.85;;;10.50;24.80;;;;;;5034389;28;20053;-78
2021/04/27 07:06:53;;;;;;;7.85;4.32;;;10.40;24.40;;;;;;5028230;28;20124;-78
2021/04/27 07:09:19;;;;;;;10.80;3.55;;;10.50;24.50;;;;;;5032654;28;20041;-78
2021/04/27 07:11:44;;;;;;;16.50;4.13;;;10.80;23.30;;;;;;5027105;28;20539;-79
2021/04/27 07:14:10;;;;;;;12.40;3.67;;;11.00;23.70;;;;;;5026035;28;20159;-77
2021/04/27 07:16:36;;;;;;;13.23;4.30;;;11.20;23.20;;;;;;5021385;28;20041;-78
2021/04/27 07:19:01;;;;;;;6.28;3.28;;;11.20;23.20;;;;;;5028107;28;20037;-78
2021/04/27 07:21:27;;;;;;;13.48;4.93;;;11.30;22.70;;;;;;5026897;28;20116;-78
2021/04/27 07:23:52;;;;;;;14.40;3.97;;;10.80;23.10;;;;;;5027353;28;20038;-77
2021/04/27 07:26:18;;;;;;;14.13;4.20;;;11.30;23.40;;;;;;5028255;28;20037;-81
2021/04/27 07:28:44;;;;;;;13.73;4.25;;;11.50;23.60;;;;;;5021870;28;20037;-79
2021/04/27 07:31:09;;;;;;;10.60;3.70;;;11.90;22.80;;;;;;5033278;28;20056;-79
2021/04/27 07:33:35;;;;;;;13.93;3.90;;;11.90;22.60;;;;;;5029714;28;20621;-80
2021/04/27 07:36:01;;;;;;;15.50;3.92;;;11.80;21.70;;;;;;5016415;28;20038;-80
2021/04/27 07:38:26;;;;;;;6.68;3.40;;;12.00;22.50;;;;;;5018034;28;20026;-79
2021/04/27 07:40:52;;;;;;;14.27;4.70;;;12.10;21.90;;;;;;5021208;28;20117;-76
2021/04/27 07:43:17;;;;;;;8.23;4.25;;;11.80;20.90;;;;;;5031197;28;20026;-76
2021/04/27 07:45:43;;;;;;;8.98;4.20;;;11.90;21.60;;;;;;5032805;28;20066;-77
2021/04/27 07:48:09;;;;;;;11.10;3.88;;;12.10;22.40;;;;;;5033085;28;20033;-79
2021/04/27 07:50:36;;;;;;;9.38;4.22;;;12.10;21.70;;;;;;5036649;28;20136;-77
2021/04/27 07:53:03;;;;;;;14.25;4.43;;;12.20;21.30;;;;;;5027259;28;21421;-78
2021/04/27 07:55:29;;;;;;;13.52;3.80;;;12.20;20.80;;;;;;5025436;28;20607;-78
2021/04/27 07:57:54;;;;;;;8.73;4.07;;;12.20;22.30;;;;;;5030520;28;20128;-78
2021/04/27 08:00:21;;;;;;;7.47;3.88;;;12.50;21.20;;;;;;5036732;28;20029;-78
2021/04/27 08:02:49;;;;;;;18.05;4.30;;;12.50;21.20;;;;;;5023108;28;20040;-77
2021/04/27 08:05:16;;;;;;;11.18;5.10;;;12.40;21.30;;;;;;5031657;28;20045;-77
2021/04/27 08:07:41;;;;;;;16.48;5.55;;;12.70;21.30;;;;;;5032610;28;20109;-77
2021/04/27 08:10:13;;;;;;;8.15;4.03;;;13.00;21.10;;;;;;5027762;28;20064;-77
2021/04/27 08:12:38;;;;;;;21.17;4.55;;;13.10;20.50;;;;;;5030476;28;20071;-76
2021/04/27 08:15:05;;;;;;;8.85;4.07;;;12.70;21.10;;;;;;5026755;28;20132;-77
2021/04/27 08:17:31;;;;;;;9.18;3.85;;;11.90;21.20;;;;;;5026251;28;20068;-77
2021/04/27 08:19:57;;;;;;;14.45;4.70;;;12.00;22.20;;;;;;5029112;28;20037;-80
2021/04/27 08:22:23;;;;;;;9.75;4.30;;;11.90;22.20;;;;;;5028613;28;20029;-80
2021/04/27 08:24:48;;;;;;;12.43;4.53;;;12.30;22.70;;;;;;5031282;28;20051;-77
2021/04/27 08:27:15;;;;;;;12.85;4.80;;;12.40;21.40;;;;;;5042330;28;20144;-77
2021/04/27 08:29:41;;;;;;;11.60;5.30;;;11.90;21.00;;;;;;5028546;28;20037;-77
2021/04/27 08:32:07;;;;;;;16.25;5.53;;;11.80;23.70;;;;;;5030057;28;20044;-79
2021/04/27 08:34:33;;;;;;;15.32;5.10;;;12.60;22.10;;;;;;5033151;28;20064;-77
2021/04/27 08:36:59;;;;;;;15.02;5.53;;;12.90;21.70;;;;;;5035107;28;20038;-77
2021/04/27 08:39:25;;;;;;;11.63;4.63;;;12.20;21.80;;;;;;5034278;28;20057;-79
2021/04/27 08:41:51;;;;;;;13.95;5.53;;;13.10;22.60;;;;;;5033131;28;20053;-78
2021/04/27 08:44:17;;;;;;;10.10;5.40;;;13.20;20.30;;;;;;5048875;28;20033;-78
2021/04/27 08:46:43;;;;;;;10.68;5.10;;;13.30;20.40;;;;;;5029930;28;20037;-79
2021/04/27 08:49:09;;;;;;;21.60;5.15;;;13.40;20.70;;;;;;5032558;28;20579;-79
2021/04/27 08:51:35;;;;;;;12.30;4.95;;;14.10;20.40;;;;;;5033517;28;20045;-79
2021/04/27 08:54:03;;;;;;;10.55;4.78;;;14.60;19.60;;;;;;5033270;28;20466;-77
2021/04/27 08:56:29;;;;;;;12.05;5.32;;;14.70;18.30;;;;;;5036181;28;20045;-78
2021/04/27 08:58:55;;;;;;;12.52;4.85;;;14.90;17.90;;;;;;5028754;28;20072;-81
2021/04/27 09:01:21;;;;;;;13.18;5.68;;;15.30;17.80;;;;;;5032626;28;20172;-80
2021/04/27 09:03:54;;;;;;;10.07;5.13;;;15.00;17.10;;;;;;5031445;28;20033;-81
2021/04/27 09:06:22;;;;;;;8.82;4.78;;;15.70;17.20;;;;;;5034905;28;20033;-79
2021/04/27 09:08:49;;;;;;;14.68;6.13;;;15.90;17.40;;;;;;5031050;28;20037;-83
2021/04/27 09:11:38;;;;;;;17.25;4.97;;;16.30;16.50;;;;;;5034612;28;20496;-82
2021/04/27 09:14:06;;;;;;;13.40;5.97;;;16.70;15.50;;;;;;5032962;28;20037;-82
2021/04/27 09:16:33;;;;;;;16.13;5.63;;;17.60;14.90;;;;;;5023810;28;20056;-80
2021/04/27 09:18:58;;;;;;;14.45;6.00;;;17.90;15.50;;;;;;5025250;28;20706;-79
2021/04/27 09:21:32;;;;;;;13.70;5.60;;;18.20;13.70;;;;;;5026245;28;20073;-79
2021/04/27 09:23:58;;;;;;;12.82;5.70;;;18.50;13.40;;;;;;4993344;28;20077;-79
2021/04/27 09:26:23;;;;;;;14.27;6.07;;;18.80;13.20;;;;;;5000615;28;20072;-78
2021/04/27 09:28:57;;;;;;;13.80;5.70;;;18.80;11.50;;;;;;5022893;28;20038;-80
2021/04/27 09:31:38;;;;;;;16.15;5.35;;;19.10;12.60;;;;;;5020512;28;20038;-82
2021/04/27 09:34:22;;;;;;;14.77;5.05;;;19.20;12.80;;;;;;5025161;28;20570;-81
2021/04/27 09:36:50;;;;;;;18.27;5.63;;;19.60;12.20;;;;;;5022273;28;20038;-80
2021/04/27 09:39:20;;;;;;;12.82;5.38;;;19.40;11.80;;;;;;5027290;28;20068;-79
2021/04/27 09:41:57;;;;;;;12.57;6.65;;;19.20;11.30;;;;;;5024496;28;20477;-79
2021/04/27 09:44:50;;;;;;;11.43;5.18;;;19.90;11.50;;;;;;5025758;28;20052;-82
2021/04/27 09:47:22;;;;;;;13.43;6.90;;;20.50;10.50;;;;;;5019392;28;20036;-80
2021/04/27 09:50:07;;;;;;;9.60;5.70;;;20.30;10.40;;;;;;5029421;28;20038;-79
2021/04/27 09:52:44;;;;;;;11.00;6.35;;;20.30;11.40;;;;;;5033721;28;20068;-80
2021/04/27 09:55:23;;;;;;;11.38;6.15;;;20.80;9.90;;;;;;5032625;28;20392;-80
2021/04/27 09:57:56;;;;;;;15.60;6.13;;;20.70;9.90;;;;;;5020136;28;20910;-80
2021/04/27 10:00:34;;;;;;;15.53;6.17;;;20.90;9.80;;;;;;5029901;28;20033;-80
2021/04/27 10:03:07;;;;;;;11.25;5.75;;;20.40;10.00;;;;;;5028261;28;20064;-80
2021/04/27 10:05:35;;;;;;;9.15;5.68;;;20.90;10.80;;;;;;5029795;28;20037;-79
2021/04/27 10:08:01;;;;;;;10.23;6.22;;;21.20;11.00;;;;;;5032503;28;20101;-80
2021/04/27 10:10:30;;;;;;;11.05;6.15;;;21.30;9.00;;;;;;5034794;28;20061;-80
2021/04/27 10:13:04;;;;;;;13.73;6.68;;;22.10;9.20;;;;;;5031948;28;20038;-79
2021/04/27 10:15:30;;;;;;;12.20;6.18;;;21.70;8.10;;;;;;5032063;28;20044;-79
2021/04/27 10:17:58;;;;;;;16.58;5.95;;;20.70;8.70;;;;;;5035408;28;20029;-79
2021/04/27 10:20:24;;;;;;;14.43;6.47;;;22.00;8.70;;;;;;5034050;28;20033;-81
2021/04/27 10:22:50;;;;;;;12.23;6.55;;;21.30;9.70;;;;;;5035449;28;20064;-81
2021/04/27 10:25:23;;;;;;;13.88;6.75;;;22.00;8.40;;;;;;5029274;28;20106;-78
2021/04/27 10:28:02;;;;;;;15.50;6.93;;;21.50;8.00;;;;;;5032179;28;20081;-78
2021/04/27 10:31:13;;;;;;;9.77;5.88;;;21.40;9.80;;;;;;5035417;28;20045;-80
2021/04/27 10:34:01;;;;;;;17.80;7.40;;;22.10;9.10;;;;;;5009487;28;20037;-78
2021/04/27 10:36:28;;;;;;;10.38;6.35;;;21.30;9.70;;;;;;5035276;28;20068;-79
2021/04/27 10:38:56;;;;;;;13.45;6.80;;;22.00;9.20;;;;;;5024294;28;20640;-79
2021/04/27 10:41:25;;;;;;;13.95;6.18;;;22.50;8.70;;;;;;5021743;28;20037;-77
2021/04/27 10:44:00;;;;;;;11.60;6.57;;;23.20;7.90;;;;;;5026712;28;20029;-80
2021/04/27 10:46:26;;;;;;;12.02;6.72;;;23.10;8.60;;;;;;5017469;28;20188;-82
2021/04/27 10:48:52;;;;;;;15.55;7.20;;;23.50;8.40;;;;;;5022574;28;20132;-80
2021/04/27 10:51:20;;;;;;;11.95;7.30;;;23.10;8.10;;;;;;5028180;28;20041;-78
2021/04/27 10:54:16;;;;;;;12.65;7.28;;;22.40;7.30;;;;;;5029742;28;20033;-81
2021/04/27 10:57:10;;;;;;;14.07;7.20;;;21.80;7.50;;;;;;5023983;28;20069;-80
2021/04/27 10:59:58;;;;;;;11.77;6.72;;;22.90;8.30;;;;;;5010104;28;20052;-81
2021/04/27 11:02:27;;;;;;;11.13;6.63;;;23.60;7.90;;;;;;5020506;28;20041;-79
2021/04/27 11:04:56;;;;;;;16.17;7.13;;;23.80;7.10;;;;;;5022581;28;20392;-80
2021/04/27 11:07:24;;;;;;;15.77;6.72;;;23.60;7.10;;;;;;5028296;28;20137;-78
2021/04/27 11:10:05;;;;;;;15.60;7.15;;;23.70;6.50;;;;;;5031270;28;20034;-80
2021/04/27 11:12:41;;;;;;;15.55;8.23;;;23.50;6.40;;;;;;5027100;28;20044;-80
2021/04/27 11:15:10;;;;;;;18.48;7.45;;;24.80;6.50;;;;;;5031472;28;20061;-81
2021/04/27 11:17:38;;;;;;;14.13;7.68;;;23.60;5.80;;;;;;5025757;28;20042;-80
2021/04/27 11:20:07;;;;;;;17.10;7.65;;;23.00;6.60;;;;;;5020824;28;20075;-81
2021/04/27 11:22:34;;;;;;;13.23;7.25;;;21.30;7.10;;;;;;5024419;28;20046;-80
2021/04/27 11:25:07;;;;;;;14.82;7.70;;;22.50;7.70;;;;;;5015773;28;20448;-80
2021/04/27 11:27:38;;;;;;;15.25;8.02;;;21.00;6.80;;;;;;5021543;28;20053;-79
2021/04/27 11:30:08;;;;;;;15.10;6.40;;;21.50;7.20;;;;;;5017660;28;20122;-80
2021/04/27 11:32:35;;;;;;;13.75;8.10;;;23.10;7.50;;;;;;5020222;28;20045;-78
2021/04/27 11:35:14;;;;;;;16.88;7.50;;;23.30;5.80;;;;;;5028403;28;20037;-79
2021/04/27 11:37:52;;;;;;;10.43;6.45;;;23.80;6.40;;;;;;5025792;28;20045;-80
2021/04/27 11:40:20;;;;;;;14.57;7.65;;;24.70;6.20;;;;;;5026030;28;20037;-79
2021/04/27 11:42:52;;;;;;;17.60;7.38;;;24.60;5.60;;;;;;5026648;28;20442;-80
2021/04/27 11:45:18;;;;;;;20.80;8.15;;;24.30;5.00;;;;;;5027318;28;20045;-80
2021/04/27 11:47:48;;;;;;;16.58;7.80;;;24.60;4.70;;;;;;5029549;28;20160;-79
2021/04/27 11:50:20;;;;;;;13.25;6.93;;;24.20;6.30;;;;;;5033535;28;20029;-79
2021/04/27 11:53:05;;;;;;;11.70;6.85;;;25.70;6.00;;;;;;5028748;28;20044;-80
2021/04/27 11:55:51;;;;;;;14.75;7.80;;;26.00;5.00;;;;;;5025264;28;20037;-79
2021/04/27 11:58:18;;;;;;;13.43;7.20;;;25.40;4.30;;;;;;5027871;28;20045;-80
2021/04/27 12:00:53;;;;;;;12.45;7.13;;;24.60;4.10;;;;;;5024332;28;20040;-79
2021/04/27 12:03:24;;;;;;;15.18;7.25;;;24.60;4.70;;;;;;5026893;28;20045;-78
2021/04/27 12:05:54;;;;;;;15.07;6.93;;;23.90;4.70;;;;;;5025212;28;20061;-77
2021/04/27 12:08:33;;;;;;;15.35;6.20;;;23.50;5.80;;;;;;5023182;28;20119;-78
2021/04/27 12:11:10;;;;;;;14.82;8.13;;;24.80;5.20;;;;;;5020520;28;20596;-79
2021/04/27 12:13:38;;;;;;;13.48;6.28;;;25.70;4.10;;;;;;5019910;28;20116;-78
2021/04/27 12:16:08;;;;;;;11.00;6.82;;;25.30;3.50;;;;;;5024206;28;20033;-77
2021/04/27 12:18:49;;;;;;;16.20;7.93;;;25.00;3.70;;;;;;5023780;28;20194;-77
2021/04/27 12:21:26;;;;;;;12.27;7.68;;;25.20;2.90;;;;;;5026854;28;20053;-78
2021/04/27 12:24:06;;;;;;;17.70;7.32;;;24.20;2.90;;;;;;5028343;28;20025;-78
2021/04/27 12:26:32;;;;;;;16.00;7.47;;;24.60;4.30;;;;;;5025215;28;20532;-76
2021/04/27 12:28:58;;;;;;;19.25;7.47;;;23.70;3.70;;;;;;5024913;28;20045;-77
2021/04/27 12:31:25;;;;;;;16.45;7.78;;;24.90;3.90;;;;;;5025117;28;20044;-76
2021/04/27 12:34:01;;;;;;;19.00;8.25;;;25.00;3.10;;;;;;5019114;28;20623;-77
2021/04/27 12:36:33;;;;;;;12.63;7.20;;;25.50;4.00;;;;;;5023658;28;20033;-75
2021/04/27 12:38:58;;;;;;;17.60;7.55;;;25.10;2.70;;;;;;5038524;28;20380;-77
2021/04/27 12:41:39;;;;;;;14.90;6.88;;;25.60;3.50;;;;;;5041067;28;20074;-78
2021/04/27 12:44:40;;;;;;;15.77;6.72;;;25.40;3.30;;;;;;5031149;28;20044;-75
2021/04/27 12:47:25;;;;;;;9.43;6.22;;;25.60;3.40;;;;;;5016633;28;20040;-76
2021/04/27 12:50:01;;;;;;;13.63;7.55;;;25.70;3.50;;;;;;5025384;28;20025;-76
2021/04/27 12:52:28;;;;;;;16.40;7.55;;;24.70;2.90;;;;;;5024996;28;20033;-76
2021/04/27 12:55:04;;;;;;;11.75;7.45;;;25.20;3.20;;;;;;5024659;28;20040;-78
2021/04/27 12:57:30;;;;;;;13.05;6.38;;;25.80;3.60;;;;;;5021778;28;20199;-77